sensor_id;sensor_type;location;lat;lon;timestamp;pressure;altitude;pressure_sealevel;temperature;humidity
12973;BME280;6551;51.056;9.466;2023-01-26T00:01:19;98258.63;;;2.17;82.65
12973;BME280;6551;51.056;9.466;2023-01-26T00:03:47;98261.66;;;2.22;82.42
12973;BME280;6551;51.056;9.466;2023-01-26T00:06:22;98262.69;;;2.29;82.17
12973;BME280;6551;51.056;9.466;2023-01-26T00:08:52;98253.53;;;2.33;82.14
12973;BME280;6551;51.056;9.466;2023-01-26T00:11:21;98258.91;;;2.31;81.78
12973;BME280;6551;51.056;9.466;2023-01-26T00:13:59;98264.84;;;2.33;81.59
12973;BME280;6551;51.056;9.466;2023-01-26T00:16:26;98257.94;;;2.32;80.94
12973;BME280;6551;51.056;9.466;2023-01-26T00:18:52;98252.19;;;1.94;80.13
12973;BME280;6551;51.056;9.466;2023-01-26T00:21:21;98247.47;;;1.80;80.49
12973;BME280;6551;51.056;9.466;2023-01-26T00:23:48;98242.94;;;1.54;81.37
12973;BME280;6551;51.056;9.466;2023-01-26T00:26:23;98246.94;;;1.31;81.71
12973;BME280;6551;51.056;9.466;2023-01-26T00:28:50;98247.06;;;1.57;82.62
12973;BME280;6551;51.056;9.466;2023-01-26T00:31:20;98244.91;;;1.70;82.54
12973;BME280;6551;51.056;9.466;2023-01-26T00:33:46;98238.22;;;1.75;82.85
12973;BME280;6551;51.056;9.466;2023-01-26T00:36:13;98232.25;;;1.83;82.61
12973;BME280;6551;51.056;9.466;2023-01-26T00:38:40;98225.41;;;1.90;82.35
12973;BME280;6551;51.056;9.466;2023-01-26T00:41:06;98234.78;;;1.93;82.23
12973;BME280;6551;51.056;9.466;2023-01-26T00:43:33;98235.84;;;2.00;82.16
12973;BME280;6551;51.056;9.466;2023-01-26T00:46:00;98234.94;;;2.09;82.26
12973;BME280;6551;51.056;9.466;2023-01-26T00:48:26;98238.84;;;2.05;81.49
12973;BME280;6551;51.056;9.466;2023-01-26T00:50:53;98229.22;;;2.13;81.14
12973;BME280;6551;51.056;9.466;2023-01-26T00:53:20;98223.56;;;1.83;79.91
12973;BME280;6551;51.056;9.466;2023-01-26T00:55:46;98218.91;;;1.94;80.09
12973;BME280;6551;51.056;9.466;2023-01-26T00:58:12;98218.66;;;2.05;80.90
12973;BME280;6551;51.056;9.466;2023-01-26T01:00:40;98221.06;;;2.16;81.15
12973;BME280;6551;51.056;9.466;2023-01-26T01:03:06;98224.94;;;2.12;80.18
12973;BME280;6551;51.056;9.466;2023-01-26T01:05:33;98223.22;;;2.21;80.20
12973;BME280;6551;51.056;9.466;2023-01-26T01:07:59;98220.81;;;2.27;80.38
12973;BME280;6551;51.056;9.466;2023-01-26T01:10:27;98219.44;;;1.80;78.96
12973;BME280;6551;51.056;9.466;2023-01-26T01:12:54;98211.91;;;1.67;79.63
12973;BME280;6551;51.056;9.466;2023-01-26T01:15:21;98205.63;;;1.60;79.67
12973;BME280;6551;51.056;9.466;2023-01-26T01:17:48;98208.25;;;1.60;80.32
12973;BME280;6551;51.056;9.466;2023-01-26T01:20:15;98205.25;;;1.55;79.67
12973;BME280;6551;51.056;9.466;2023-01-26T01:22:42;98205.84;;;1.49;80.35
12973;BME280;6551;51.056;9.466;2023-01-26T01:25:09;98196.38;;;1.56;80.85
12973;BME280;6551;51.056;9.466;2023-01-26T01:27:35;98191.44;;;1.53;80.49
12973;BME280;6551;51.056;9.466;2023-01-26T01:30:01;98201.63;;;1.39;80.46
12973;BME280;6551;51.056;9.466;2023-01-26T01:32:36;98197.94;;;1.67;80.55
12973;BME280;6551;51.056;9.466;2023-01-26T01:35:04;98192.56;;;1.68;80.50
12973;BME280;6551;51.056;9.466;2023-01-26T01:37:30;98186.09;;;1.81;80.86
12973;BME280;6551;51.056;9.466;2023-01-26T01:39:57;98186.03;;;1.90;81.04
12973;BME280;6551;51.056;9.466;2023-01-26T01:42:24;98186.69;;;1.92;80.32
12973;BME280;6551;51.056;9.466;2023-01-26T01:45:35;98190.38;;;1.99;80.12
12973;BME280;6551;51.056;9.466;2023-01-26T01:48:06;98193.06;;;2.07;79.33
12973;BME280;6551;51.056;9.466;2023-01-26T01:50:37;98187.03;;;2.15;79.15
12973;BME280;6551;51.056;9.466;2023-01-26T01:53:06;98183.94;;;2.19;78.85
12973;BME280;6551;51.056;9.466;2023-01-26T01:55:35;98183.50;;;2.24;78.34
12973;BME280;6551;51.056;9.466;2023-01-26T01:58:02;98181.59;;;2.34;78.38
12973;BME280;6551;51.056;9.466;2023-01-26T02:00:29;98185.06;;;2.34;77.67
12973;BME280;6551;51.056;9.466;2023-01-26T02:02:59;98177.84;;;2.36;77.46
12973;BME280;6551;51.056;9.466;2023-01-26T02:06:01;98178.66;;;2.37;77.00
12973;BME280;6551;51.056;9.466;2023-01-26T02:08:54;98167.00;;;2.40;77.54
12973;BME280;6551;51.056;9.466;2023-01-26T02:11:33;98173.09;;;2.40;77.41
12973;BME280;6551;51.056;9.466;2023-01-26T02:14:03;98164.44;;;2.48;77.46
12973;BME280;6551;51.056;9.466;2023-01-26T02:16:32;98166.91;;;2.49;76.91
12973;BME280;6551;51.056;9.466;2023-01-26T02:18:58;98166.72;;;2.43;75.82
12973;BME280;6551;51.056;9.466;2023-01-26T02:21:24;98169.72;;;2.56;76.25
12973;BME280;6551;51.056;9.466;2023-01-26T02:26:37;98161.06;;;2.55;75.91
12973;BME280;6551;51.056;9.466;2023-01-26T02:29:09;98156.44;;;2.57;75.69
12973;BME280;6551;51.056;9.466;2023-01-26T02:31:37;98148.72;;;2.56;75.77
12973;BME280;6551;51.056;9.466;2023-01-26T02:34:04;98146.25;;;2.54;74.97
12973;BME280;6551;51.056;9.466;2023-01-26T02:36:32;98149.00;;;2.53;75.01
12973;BME280;6551;51.056;9.466;2023-01-26T02:42:04;98148.56;;;2.57;74.99
12973;BME280;6551;51.056;9.466;2023-01-26T02:44:49;98131.97;;;2.57;74.56
12973;BME280;6551;51.056;9.466;2023-01-26T02:47:17;98134.91;;;2.54;74.80
12973;BME280;6551;51.056;9.466;2023-01-26T02:49:44;98133.59;;;2.50;74.81
12973;BME280;6551;51.056;9.466;2023-01-26T02:52:23;98128.94;;;2.44;75.21
12973;BME280;6551;51.056;9.466;2023-01-26T02:54:53;98126.59;;;2.32;74.83
12973;BME280;6551;51.056;9.466;2023-01-26T02:57:37;98120.50;;;2.32;74.64
12973;BME280;6551;51.056;9.466;2023-01-26T03:00:09;98124.41;;;2.28;74.91
12973;BME280;6551;51.056;9.466;2023-01-26T03:02:40;98109.09;;;2.15;74.95
12973;BME280;6551;51.056;9.466;2023-01-26T03:05:06;98114.69;;;2.20;75.22
12973;BME280;6551;51.056;9.466;2023-01-26T03:07:32;98108.91;;;2.17;75.31
12973;BME280;6551;51.056;9.466;2023-01-26T03:09:59;98110.75;;;2.16;75.77
12973;BME280;6551;51.056;9.466;2023-01-26T03:12:26;98100.25;;;2.16;75.60
12973;BME280;6551;51.056;9.466;2023-01-26T03:14:53;98107.28;;;2.16;75.38
12973;BME280;6551;51.056;9.466;2023-01-26T03:17:38;98102.03;;;2.16;75.69
12973;BME280;6551;51.056;9.466;2023-01-26T03:20:06;98110.53;;;2.10;75.27
12973;BME280;6551;51.056;9.466;2023-01-26T03:22:53;98108.03;;;2.08;75.33
12973;BME280;6551;51.056;9.466;2023-01-26T03:25:38;98104.09;;;2.04;75.33
12973;BME280;6551;51.056;9.466;2023-01-26T03:28:24;98106.25;;;2.09;75.51
12973;BME280;6551;51.056;9.466;2023-01-26T03:30:55;98103.00;;;2.15;75.98
12973;BME280;6551;51.056;9.466;2023-01-26T03:33:23;98106.09;;;2.10;75.04
12973;BME280;6551;51.056;9.466;2023-01-26T03:35:53;98097.75;;;2.15;75.55
12973;BME280;6551;51.056;9.466;2023-01-26T03:38:20;98096.63;;;2.17;75.22
12973;BME280;6551;51.056;9.466;2023-01-26T03:40:46;98092.28;;;2.08;74.91
12973;BME280;6551;51.056;9.466;2023-01-26T03:43:31;98086.88;;;2.10;75.07
12973;BME280;6551;51.056;9.466;2023-01-26T03:46:16;98091.53;;;2.16;75.27
12973;BME280;6551;51.056;9.466;2023-01-26T03:49:00;98088.63;;;2.01;75.21
12973;BME280;6551;51.056;9.466;2023-01-26T03:51:45;98093.59;;;2.04;75.27
12973;BME280;6551;51.056;9.466;2023-01-26T03:54:30;98090.00;;;2.05;75.30
12973;BME280;6551;51.056;9.466;2023-01-26T03:57:14;98097.97;;;1.96;74.98
12973;BME280;6551;51.056;9.466;2023-01-26T03:59:41;98088.63;;;2.01;75.21
12973;BME280;6551;51.056;9.466;2023-01-26T04:02:09;98098.84;;;2.04;75.36
12973;BME280;6551;51.056;9.466;2023-01-26T04:04:56;98095.63;;;1.93;75.02
12973;BME280;6551;51.056;9.466;2023-01-26T04:07:43;98092.78;;;1.86;74.70
12973;BME280;6551;51.056;9.466;2023-01-26T04:10:29;98092.78;;;1.86;74.95
12973;BME280;6551;51.056;9.466;2023-01-26T04:12:55;98091.28;;;1.84;75.00
12973;BME280;6551;51.056;9.466;2023-01-26T04:15:41;98093.63;;;1.87;75.83
12973;BME280;6551;51.056;9.466;2023-01-26T04:18:25;98092.13;;;1.84;75.36
12973;BME280;6551;51.056;9.466;2023-01-26T04:21:10;98099.22;;;1.92;75.11
12973;BME280;6551;51.056;9.466;2023-01-26T04:23:55;98084.25;;;1.84;75.02
12973;BME280;6551;51.056;9.466;2023-01-26T04:26:23;98086.75;;;1.86;75.61
12973;BME280;6551;51.056;9.466;2023-01-26T04:28:49;98082.69;;;1.91;75.80
12973;BME280;6551;51.056;9.466;2023-01-26T04:31:15;98082.72;;;1.99;76.14
12973;BME280;6551;51.056;9.466;2023-01-26T04:33:44;98077.78;;;1.96;75.26
12973;BME280;6551;51.056;9.466;2023-01-26T04:36:11;98078.47;;;1.81;74.68
12973;BME280;6551;51.056;9.466;2023-01-26T04:38:38;98080.13;;;1.82;74.91
12973;BME280;6551;51.056;9.466;2023-01-26T04:41:05;98088.47;;;1.77;74.26
12973;BME280;6551;51.056;9.466;2023-01-26T04:43:31;98077.94;;;1.69;74.73
12973;BME280;6551;51.056;9.466;2023-01-26T04:46:03;98074.00;;;1.73;74.95
12973;BME280;6551;51.056;9.466;2023-01-26T04:48:29;98071.06;;;1.76;74.38
12973;BME280;6551;51.056;9.466;2023-01-26T04:51:02;98077.94;;;1.51;73.82
12973;BME280;6551;51.056;9.466;2023-01-26T04:53:28;98079.91;;;1.49;74.72
12973;BME280;6551;51.056;9.466;2023-01-26T04:55:54;98078.47;;;1.55;75.53
12973;BME280;6551;51.056;9.466;2023-01-26T04:58:20;98081.47;;;1.42;75.41
12973;BME280;6551;51.056;9.466;2023-01-26T05:00:56;98077.22;;;1.41;75.92
12973;BME280;6551;51.056;9.466;2023-01-26T05:03:24;98071.06;;;1.33;75.55
12973;BME280;6551;51.056;9.466;2023-01-26T05:05:54;98074.75;;;1.22;75.64
12973;BME280;6551;51.056;9.466;2023-01-26T05:08:21;98068.69;;;1.22;76.60
12973;BME280;6551;51.056;9.466;2023-01-26T05:10:48;98071.38;;;1.30;76.86
12973;BME280;6551;51.056;9.466;2023-01-26T05:13:14;98066.78;;;1.32;75.94
12973;BME280;6551;51.056;9.466;2023-01-26T05:15:41;98073.53;;;1.34;76.11
12973;BME280;6551;51.056;9.466;2023-01-26T05:18:09;98062.75;;;1.19;75.68
12973;BME280;6551;51.056;9.466;2023-01-26T05:20:35;98067.03;;;1.21;76.31
12973;BME280;6551;51.056;9.466;2023-01-26T05:23:01;98067.75;;;1.31;76.62
12973;BME280;6551;51.056;9.466;2023-01-26T05:25:27;98072.03;;;1.32;76.59
12973;BME280;6551;51.056;9.466;2023-01-26T05:27:54;98085.38;;;1.38;76.76
12973;BME280;6551;51.056;9.466;2023-01-26T05:30:21;98078.94;;;1.33;76.58
12973;BME280;6551;51.056;9.466;2023-01-26T05:32:47;98084.13;;;1.25;75.84
12973;BME280;6551;51.056;9.466;2023-01-26T05:35:13;98077.44;;;1.30;75.49
12973;BME280;6551;51.056;9.466;2023-01-26T05:37:41;98085.00;;;1.33;75.54
12973;BME280;6551;51.056;9.466;2023-01-26T05:40:10;98089.44;;;1.33;75.82
12973;BME280;6551;51.056;9.466;2023-01-26T05:42:37;98094.75;;;1.41;75.40
12973;BME280;6551;51.056;9.466;2023-01-26T05:45:05;98088.13;;;1.37;75.36
12973;BME280;6551;51.056;9.466;2023-01-26T05:47:32;98084.84;;;1.35;74.93
12973;BME280;6551;51.056;9.466;2023-01-26T05:49:58;98090.63;;;1.38;75.26
12973;BME280;6551;51.056;9.466;2023-01-26T05:52:24;98082.75;;;1.38;74.50
12973;BME280;6551;51.056;9.466;2023-01-26T05:54:51;98079.44;;;1.36;74.52
12973;BME280;6551;51.056;9.466;2023-01-26T05:57:18;98086.88;;;1.41;74.80
12973;BME280;6551;51.056;9.466;2023-01-26T05:59:43;98088.50;;;1.42;74.67
12973;BME280;6551;51.056;9.466;2023-01-26T06:02:11;98081.53;;;1.50;74.39
12973;BME280;6551;51.056;9.466;2023-01-26T06:04:39;98090.28;;;1.59;74.32
12973;BME280;6551;51.056;9.466;2023-01-26T06:07:04;98085.75;;;1.61;74.52
12973;BME280;6551;51.056;9.466;2023-01-26T06:09:31;98090.53;;;1.65;73.98
12973;BME280;6551;51.056;9.466;2023-01-26T06:11:57;98091.50;;;1.64;74.00
12973;BME280;6551;51.056;9.466;2023-01-26T06:14:23;98085.81;;;1.69;73.87
12973;BME280;6551;51.056;9.466;2023-01-26T06:16:49;98091.66;;;1.63;73.25
12973;BME280;6551;51.056;9.466;2023-01-26T06:19:15;98085.56;;;1.62;73.46
12973;BME280;6551;51.056;9.466;2023-01-26T06:21:40;98088.13;;;1.54;73.59
12973;BME280;6551;51.056;9.466;2023-01-26T06:24:06;98091.00;;;1.61;73.79
12973;BME280;6551;51.056;9.466;2023-01-26T06:26:32;98082.06;;;1.54;73.36
12973;BME280;6551;51.056;9.466;2023-01-26T06:28:58;98080.50;;;1.61;73.51
12973;BME280;6551;51.056;9.466;2023-01-26T06:31:26;98084.44;;;1.65;74.39
12973;BME280;6551;51.056;9.466;2023-01-26T06:33:54;98085.09;;;1.67;73.73
12973;BME280;6551;51.056;9.466;2023-01-26T06:36:20;98075.66;;;1.74;73.93
12973;BME280;6551;51.056;9.466;2023-01-26T06:38:50;98087.19;;;1.81;73.93
12973;BME280;6551;51.056;9.466;2023-01-26T06:41:18;98085.75;;;1.87;73.69
12973;BME280;6551;51.056;9.466;2023-01-26T06:43:47;98091.94;;;1.77;72.35
12973;BME280;6551;51.056;9.466;2023-01-26T06:46:14;98088.63;;;1.75;72.76
12973;BME280;6551;51.056;9.466;2023-01-26T06:48:40;98092.19;;;1.66;72.64
12973;BME280;6551;51.056;9.466;2023-01-26T06:53:54;98091.72;;;1.71;72.02
12973;BME280;6551;51.056;9.466;2023-01-26T06:56:22;98094.13;;;1.64;71.66
12973;BME280;6551;51.056;9.466;2023-01-26T06:58:48;98091.78;;;1.61;71.08
12973;BME280;6551;51.056;9.466;2023-01-26T07:01:26;98097.03;;;1.61;71.00
12973;BME280;6551;51.056;9.466;2023-01-26T07:03:54;98094.22;;;1.55;71.11
12973;BME280;6551;51.056;9.466;2023-01-26T07:06:21;98091.19;;;1.67;71.53
12973;BME280;6551;51.056;9.466;2023-01-26T07:08:47;98097.56;;;1.65;71.65
12973;BME280;6551;51.056;9.466;2023-01-26T07:11:13;98097.44;;;1.66;71.67
12973;BME280;6551;51.056;9.466;2023-01-26T07:13:40;98093.56;;;1.78;71.92
12973;BME280;6551;51.056;9.466;2023-01-26T07:16:12;98102.44;;;1.77;71.32
12973;BME280;6551;51.056;9.466;2023-01-26T07:18:39;98096.25;;;1.61;71.28
12973;BME280;6551;51.056;9.466;2023-01-26T07:21:16;98103.47;;;1.67;72.17
12973;BME280;6551;51.056;9.466;2023-01-26T07:23:48;98102.88;;;1.73;72.31
12973;BME280;6551;51.056;9.466;2023-01-26T07:26:15;98110.97;;;1.80;72.28
12973;BME280;6551;51.056;9.466;2023-01-26T07:28:41;98115.75;;;1.84;71.87
12973;BME280;6551;51.056;9.466;2023-01-26T07:31:07;98114.63;;;1.87;71.20
12973;BME280;6551;51.056;9.466;2023-01-26T07:33:35;98115.97;;;1.91;72.19
12973;BME280;6551;51.056;9.466;2023-01-26T07:36:01;98113.53;;;1.71;70.97
12973;BME280;6551;51.056;9.466;2023-01-26T07:38:27;98112.06;;;1.51;72.48
12973;BME280;6551;51.056;9.466;2023-01-26T07:40:55;98118.72;;;1.63;72.89
12973;BME280;6551;51.056;9.466;2023-01-26T07:43:22;98121.13;;;1.74;73.68
12973;BME280;6551;51.056;9.466;2023-01-26T07:45:51;98118.50;;;1.74;72.89
12973;BME280;6551;51.056;9.466;2023-01-26T07:48:21;98115.41;;;1.79;72.47
12973;BME280;6551;51.056;9.466;2023-01-26T07:50:49;98119.91;;;1.69;71.98
12973;BME280;6551;51.056;9.466;2023-01-26T07:53:17;98120.41;;;1.72;72.30
12973;BME280;6551;51.056;9.466;2023-01-26T07:55:45;98128.00;;;1.75;72.79
12973;BME280;6551;51.056;9.466;2023-01-26T07:58:13;98123.19;;;1.89;73.28
12973;BME280;6551;51.056;9.466;2023-01-26T08:00:39;98120.41;;;1.90;73.05
12973;BME280;6551;51.056;9.466;2023-01-26T08:03:05;98116.63;;;1.93;72.82
12973;BME280;6551;51.056;9.466;2023-01-26T08:05:32;98115.44;;;1.87;72.07
12973;BME280;6551;51.056;9.466;2023-01-26T08:07:58;98110.75;;;1.73;72.60
12973;BME280;6551;51.056;9.466;2023-01-26T08:10:27;98111.81;;;1.80;73.08
12973;BME280;6551;51.056;9.466;2023-01-26T08:13:00;98118.28;;;1.94;73.41
12973;BME280;6551;51.056;9.466;2023-01-26T08:15:28;98117.53;;;2.01;73.98
12973;BME280;6551;51.056;9.466;2023-01-26T08:17:55;98126.59;;;2.07;73.24
12973;BME280;6551;51.056;9.466;2023-01-26T08:20:22;98120.13;;;2.19;73.43
12973;BME280;6551;51.056;9.466;2023-01-26T08:22:48;98123.66;;;2.10;72.89
12973;BME280;6551;51.056;9.466;2023-01-26T08:25:15;98122.25;;;1.98;72.72
12973;BME280;6551;51.056;9.466;2023-01-26T08:27:41;98120.81;;;1.77;73.60
12973;BME280;6551;51.056;9.466;2023-01-26T08:30:09;98125.06;;;1.78;73.91
12973;BME280;6551;51.056;9.466;2023-01-26T08:32:35;98129.72;;;1.85;74.49
12973;BME280;6551;51.056;9.466;2023-01-26T08:35:00;98124.69;;;1.73;75.01
12973;BME280;6551;51.056;9.466;2023-01-26T08:37:26;98129.28;;;1.71;74.88
12973;BME280;6551;51.056;9.466;2023-01-26T08:39:53;98128.59;;;1.69;75.63
12973;BME280;6551;51.056;9.466;2023-01-26T08:42:19;98125.06;;;1.78;75.43
12973;BME280;6551;51.056;9.466;2023-01-26T08:44:45;98127.75;;;1.87;76.14
12973;BME280;6551;51.056;9.466;2023-01-26T08:47:11;98141.22;;;2.09;76.27
12973;BME280;6551;51.056;9.466;2023-01-26T08:49:38;98132.59;;;2.25;76.07
12973;BME280;6551;51.056;9.466;2023-01-26T08:52:04;98130.66;;;2.27;75.52
12973;BME280;6551;51.056;9.466;2023-01-26T08:54:29;98127.22;;;2.26;75.92
12973;BME280;6551;51.056;9.466;2023-01-26T08:56:56;98124.59;;;2.26;76.08
12973;BME280;6551;51.056;9.466;2023-01-26T08:59:23;98134.31;;;2.34;75.43
12973;BME280;6551;51.056;9.466;2023-01-26T09:01:49;98131.94;;;2.49;75.75
12973;BME280;6551;51.056;9.466;2023-01-26T09:04:14;98123.59;;;2.61;75.50
12973;BME280;6551;51.056;9.466;2023-01-26T09:06:40;98120.34;;;2.67;74.13
12973;BME280;6551;51.056;9.466;2023-01-26T09:09:05;98118.91;;;2.81;74.83
12973;BME280;6551;51.056;9.466;2023-01-26T09:11:34;98115.84;;;2.93;74.09
12973;BME280;6551;51.056;9.466;2023-01-26T09:14:01;98117.66;;;2.93;73.23
12973;BME280;6551;51.056;9.466;2023-01-26T09:16:27;98120.13;;;2.94;73.01
12973;BME280;6551;51.056;9.466;2023-01-26T09:18:54;98120.16;;;3.03;73.36
12973;BME280;6551;51.056;9.466;2023-01-26T09:21:21;98118.03;;;3.14;73.18
12973;BME280;6551;51.056;9.466;2023-01-26T09:23:48;98113.66;;;2.81;71.82
12973;BME280;6551;51.056;9.466;2023-01-26T09:26:15;98121.94;;;2.52;73.60
12973;BME280;6551;51.056;9.466;2023-01-26T09:28:42;98129.91;;;2.68;74.35
12973;BME280;6551;51.056;9.466;2023-01-26T09:31:11;98126.63;;;2.74;74.86
12973;BME280;6551;51.056;9.466;2023-01-26T09:33:37;98131.41;;;2.79;74.47
12973;BME280;6551;51.056;9.466;2023-01-26T09:36:09;98131.63;;;2.93;74.51
12973;BME280;6551;51.056;9.466;2023-01-26T09:38:36;98129.34;;;2.99;74.15
12973;BME280;6551;51.056;9.466;2023-01-26T09:41:42;98117.69;;;3.01;72.96
12973;BME280;6551;51.056;9.466;2023-01-26T09:44:25;98114.53;;;2.97;73.11
12973;BME280;6551;51.056;9.466;2023-01-26T09:47:27;98122.31;;;3.07;73.50
12973;BME280;6551;51.056;9.466;2023-01-26T09:50:30;98123.28;;;3.06;73.27
12973;BME280;6551;51.056;9.466;2023-01-26T09:53:05;98128.41;;;3.16;73.70
12973;BME280;6551;51.056;9.466;2023-01-26T09:55:35;98133.53;;;3.25;73.02
12973;BME280;6551;51.056;9.466;2023-01-26T09:58:27;98127.94;;;3.36;73.07
12973;BME280;6551;51.056;9.466;2023-01-26T10:01:00;98115.47;;;3.38;72.79
12973;BME280;6551;51.056;9.466;2023-01-26T10:03:40;98124.03;;;3.48;72.81
12973;BME280;6551;51.056;9.466;2023-01-26T10:06:25;98129.09;;;3.42;72.58
12973;BME280;6551;51.056;9.466;2023-01-26T10:12:00;98112.84;;;3.46;71.71
12973;BME280;6551;51.056;9.466;2023-01-26T10:14:44;98108.06;;;3.50;71.40
12973;BME280;6551;51.056;9.466;2023-01-26T10:19:59;98116.13;;;3.73;72.26
12973;BME280;6551;51.056;9.466;2023-01-26T10:22:43;98115.50;;;3.71;71.68
12973;BME280;6551;51.056;9.466;2023-01-26T10:25:32;98113.19;;;3.76;71.57
12973;BME280;6551;51.056;9.466;2023-01-26T10:27:58;98115.50;;;3.63;71.61
12973;BME280;6551;51.056;9.466;2023-01-26T10:30:25;98111.53;;;3.59;71.92
12973;BME280;6551;51.056;9.466;2023-01-26T10:32:52;98105.59;;;3.57;71.96
12973;BME280;6551;51.056;9.466;2023-01-26T10:35:24;98101.50;;;3.46;71.93
12973;BME280;6551;51.056;9.466;2023-01-26T10:37:50;98088.16;;;3.47;72.54
12973;BME280;6551;51.056;9.466;2023-01-26T10:40:21;98089.94;;;3.23;71.89
12973;BME280;6551;51.056;9.466;2023-01-26T10:42:56;98088.31;;;3.14;72.95
12973;BME280;6551;51.056;9.466;2023-01-26T10:45:32;98086.28;;;2.91;73.83
12973;BME280;6551;51.056;9.466;2023-01-26T10:48:23;98089.09;;;3.06;74.34
12973;BME280;6551;51.056;9.466;2023-01-26T10:50:52;98083.84;;;3.14;75.32
12973;BME280;6551;51.056;9.466;2023-01-26T10:53:29;98083.06;;;3.38;75.30
12973;BME280;6551;51.056;9.466;2023-01-26T10:56:11;98081.59;;;3.51;75.31
12973;BME280;6551;51.056;9.466;2023-01-26T10:58:53;98076.16;;;3.45;73.86
12973;BME280;6551;51.056;9.466;2023-01-26T11:01:20;98076.66;;;3.48;74.13
12973;BME280;6551;51.056;9.466;2023-01-26T11:04:04;98075.34;;;3.61;74.77
12973;BME280;6551;51.056;9.466;2023-01-26T11:06:31;98074.84;;;3.65;74.53
12973;BME280;6551;51.056;9.466;2023-01-26T11:12:19;98071.53;;;3.87;72.88
12973;BME280;6551;51.056;9.466;2023-01-26T11:15:23;98066.91;;;3.89;72.98
12973;BME280;6551;51.056;9.466;2023-01-26T11:23:47;98055.72;;;3.95;72.61
12973;BME280;6551;51.056;9.466;2023-01-26T11:27:01;98054.38;;;4.07;72.67
12973;BME280;6551;51.056;9.466;2023-01-26T11:32:30;98048.13;;;4.00;72.17
12973;BME280;6551;51.056;9.466;2023-01-26T11:38:38;98049.13;;;4.07;71.96
12973;BME280;6551;51.056;9.466;2023-01-26T11:45:07;98037.19;;;4.28;72.03
12973;BME280;6551;51.056;9.466;2023-01-26T11:56:56;98028.25;;;4.37;70.83
12973;BME280;6551;51.056;9.466;2023-01-26T11:59:35;98017.41;;;4.32;70.86
12973;BME280;6551;51.056;9.466;2023-01-26T12:04:57;98012.63;;;4.35;71.15
12973;BME280;6551;51.056;9.466;2023-01-26T12:08:04;98004.97;;;4.48;71.64
12973;BME280;6551;51.056;9.466;2023-01-26T12:15:49;97992.09;;;4.14;72.67
12973;BME280;6551;51.056;9.466;2023-01-26T12:18:32;97986.75;;;4.31;72.68
12973;BME280;6551;51.056;9.466;2023-01-26T12:21:07;97980.97;;;4.43;72.95
12973;BME280;6551;51.056;9.466;2023-01-26T12:24:02;97982.84;;;4.27;71.71
12973;BME280;6551;51.056;9.466;2023-01-26T12:26:36;97979.91;;;4.22;71.90
12973;BME280;6551;51.056;9.466;2023-01-26T12:29:29;97982.91;;;4.49;72.40
12973;BME280;6551;51.056;9.466;2023-01-26T12:32:12;97977.06;;;4.62;72.45
12973;BME280;6551;51.056;9.466;2023-01-26T12:34:38;97976.19;;;4.69;71.68
12973;BME280;6551;51.056;9.466;2023-01-26T12:40:24;97976.91;;;5.09;71.40
12973;BME280;6551;51.056;9.466;2023-01-26T12:43:33;97977.88;;;5.16;70.68
12973;BME280;6551;51.056;9.466;2023-01-26T12:46:04;97980.09;;;5.27;70.51
12973;BME280;6551;51.056;9.466;2023-01-26T12:51:46;97979.75;;;5.30;68.50
12973;BME280;6551;51.056;9.466;2023-01-26T12:54:38;97967.66;;;5.36;68.44
12973;BME280;6551;51.056;9.466;2023-01-26T12:57:11;97963.91;;;5.30;69.55
12973;BME280;6551;51.056;9.466;2023-01-26T12:59:44;97963.78;;;5.23;69.02
12973;BME280;6551;51.056;9.466;2023-01-26T13:02:28;97966.19;;;5.10;70.32
12973;BME280;6551;51.056;9.466;2023-01-26T13:04:58;97966.78;;;4.98;69.48
12973;BME280;6551;51.056;9.466;2023-01-26T13:07:38;97965.09;;;5.05;69.90
12973;BME280;6551;51.056;9.466;2023-01-26T13:12:50;97956.34;;;5.04;70.26
12973;BME280;6551;51.056;9.466;2023-01-26T13:15:23;97958.22;;;4.96;70.14
12973;BME280;6551;51.056;9.466;2023-01-26T13:17:59;97954.22;;;5.00;70.09
12973;BME280;6551;51.056;9.466;2023-01-26T13:20:46;97949.41;;;5.03;69.94
12973;BME280;6551;51.056;9.466;2023-01-26T13:26:16;97955.16;;;5.07;70.92
12973;BME280;6551;51.056;9.466;2023-01-26T13:28:45;97956.56;;;4.95;70.42
12973;BME280;6551;51.056;9.466;2023-01-26T13:31:12;97958.91;;;4.90;70.21
12973;BME280;6551;51.056;9.466;2023-01-26T13:33:40;97958.50;;;4.78;70.40
12973;BME280;6551;51.056;9.466;2023-01-26T13:36:15;97957.03;;;4.76;71.11
12973;BME280;6551;51.056;9.466;2023-01-26T13:38:50;97961.19;;;4.70;71.39
12973;BME280;6551;51.056;9.466;2023-01-26T13:41:21;97965.13;;;4.74;71.32
12973;BME280;6551;51.056;9.466;2023-01-26T13:43:54;97965.00;;;4.67;71.62
12973;BME280;6551;51.056;9.466;2023-01-26T13:46:41;97962.00;;;4.70;71.69
12973;BME280;6551;51.056;9.466;2023-01-26T13:52:26;97969.19;;;4.54;71.69
12973;BME280;6551;51.056;9.466;2023-01-26T13:54:54;97959.28;;;4.56;72.01
12973;BME280;6551;51.056;9.466;2023-01-26T13:57:27;97968.03;;;4.56;72.70
12973;BME280;6551;51.056;9.466;2023-01-26T13:59:58;97971.53;;;4.49;72.41
12973;BME280;6551;51.056;9.466;2023-01-26T14:02:31;97973.34;;;4.48;72.60
12973;BME280;6551;51.056;9.466;2023-01-26T14:04:59;97982.72;;;4.51;72.27
12973;BME280;6551;51.056;9.466;2023-01-26T14:07:40;97969.06;;;4.47;72.55
12973;BME280;6551;51.056;9.466;2023-01-26T14:10:20;97975.16;;;4.48;72.32
12973;BME280;6551;51.056;9.466;2023-01-26T14:12:51;97979.50;;;4.41;72.38
12973;BME280;6551;51.056;9.466;2023-01-26T14:15:28;97985.75;;;4.40;72.64
12973;BME280;6551;51.056;9.466;2023-01-26T14:18:03;97983.94;;;4.40;72.92
12973;BME280;6551;51.056;9.466;2023-01-26T14:20:37;97980.13;;;4.43;72.87
12973;BME280;6551;51.056;9.466;2023-01-26T14:25:36;97973.88;;;4.44;72.94
12973;BME280;6551;51.056;9.466;2023-01-26T14:28:02;97972.19;;;4.51;73.27
12973;BME280;6551;51.056;9.466;2023-01-26T14:30:31;97974.06;;;4.34;73.14
12973;BME280;6551;51.056;9.466;2023-01-26T14:33:12;97977.53;;;4.35;73.02
12973;BME280;6551;51.056;9.466;2023-01-26T14:35:40;97979.84;;;4.38;73.57
12973;BME280;6551;51.056;9.466;2023-01-26T14:38:16;97979.94;;;4.52;73.12
12973;BME280;6551;51.056;9.466;2023-01-26T14:40:54;97976.81;;;4.49;73.32
12973;BME280;6551;51.056;9.466;2023-01-26T14:43:23;97979.66;;;4.39;73.10
12973;BME280;6551;51.056;9.466;2023-01-26T14:46:06;97977.69;;;4.64;73.38
12973;BME280;6551;51.056;9.466;2023-01-26T14:48:39;97978.53;;;4.64;73.13
12973;BME280;6551;51.056;9.466;2023-01-26T14:51:20;97979.59;;;4.78;73.21
12973;BME280;6551;51.056;9.466;2023-01-26T14:53:51;97978.31;;;4.74;72.81
12973;BME280;6551;51.056;9.466;2023-01-26T14:56:29;97984.88;;;4.78;72.51